createdAt,value
2023-02-19T00:01:54.424Z,28.97
2023-02-19T00:04:23.758Z,24.77
2023-02-19T00:06:53.775Z,19.47
2023-02-19T00:09:22.480Z,19.67
2023-02-19T00:11:50.983Z,25.73
2023-02-19T00:14:21.505Z,31.37
2023-02-19T00:16:50.351Z,24.20
2023-02-19T00:19:20.692Z,26.70
2023-02-19T00:21:51.332Z,19.40
2023-02-19T00:24:22.490Z,32.67
2023-02-19T00:26:51.165Z,24.83
2023-02-19T00:29:21.928Z,30.30
2023-02-19T00:31:51.315Z,17.77
2023-02-19T00:34:20.280Z,17.73
2023-02-19T00:36:48.909Z,20.40
2023-02-19T00:39:18.532Z,28.67
2023-02-19T00:41:48.589Z,19.33
2023-02-19T00:44:17.849Z,21.20
2023-02-19T00:46:48.352Z,25.80
2023-02-19T00:49:19.755Z,17.43
2023-02-19T00:51:48.445Z,18.40
2023-02-19T00:54:17.314Z,35.97
2023-02-19T00:56:46.187Z,25.77
2023-02-19T00:59:16.562Z,44.47
2023-02-19T01:01:45.820Z,23.30
2023-02-19T01:04:16.298Z,26.03
2023-02-19T01:06:44.915Z,29.67
2023-02-19T01:09:13.614Z,15.83
2023-02-19T01:11:43.044Z,24.63
2023-02-19T01:14:11.833Z,28.83
2023-02-19T01:16:41.725Z,21.97
2023-02-19T01:19:10.264Z,21.83
2023-02-19T01:21:38.741Z,21.17
2023-02-19T01:24:07.640Z,21.67
2023-02-19T01:26:36.199Z,28.93
2023-02-19T01:29:05.690Z,23.53
2023-02-19T01:31:34.590Z,24.20
2023-02-19T01:34:06.480Z,20.53
2023-02-19T01:36:36.819Z,22.87
2023-02-19T01:39:07.442Z,12.07
2023-02-19T01:41:39.466Z,15.60
2023-02-19T01:44:29.338Z,15.97
2023-02-19T01:46:58.666Z,14.07
2023-02-19T01:49:32.404Z,15.80
2023-02-19T01:52:05.299Z,18.73
2023-02-19T01:54:36.392Z,15.17
2023-02-19T01:57:08.929Z,11.17
2023-02-19T01:59:38.238Z,15.87
2023-02-19T02:02:07.541Z,10.60
2023-02-19T02:04:37.529Z,16.67
2023-02-19T02:07:28.345Z,16.70
2023-02-19T02:10:15.170Z,8.87
2023-02-19T02:12:43.814Z,29.43
2023-02-19T02:15:13.333Z,15.40
2023-02-19T02:17:52.285Z,15.93
2023-02-19T02:20:37.362Z,12.50
2023-02-19T02:23:15.466Z,17.23
2023-02-19T02:26:02.079Z,12.47
2023-02-19T02:29:03.441Z,13.10
2023-02-19T02:31:36.927Z,13.73
2023-02-19T02:34:08.744Z,9.70
2023-02-19T02:36:39.105Z,18.00
2023-02-19T02:39:12.194Z,10.30
2023-02-19T02:41:44.829Z,15.77
2023-02-19T02:44:14.901Z,12.27
2023-02-19T02:46:47.293Z,14.67
2023-02-19T02:49:20.965Z,11.07
2023-02-19T02:51:53.979Z,5.07
2023-02-19T02:54:48.809Z,15.03
2023-02-19T02:57:20.299Z,10.80
2023-02-19T02:59:53.268Z,9.83
2023-02-19T03:02:28.560Z,19.20
2023-02-19T03:05:21.228Z,7.33
2023-02-19T03:07:56.594Z,19.17
2023-02-19T03:10:31.183Z,15.97
2023-02-19T03:13:19.379Z,8.97
2023-02-19T03:16:15.889Z,6.00
2023-02-19T03:19:04.453Z,15.77
2023-02-19T03:21:36.101Z,13.60
2023-02-19T03:24:28.935Z,18.77
2023-02-19T03:27:00.450Z,11.47
2023-02-19T03:29:36.553Z,9.40
2023-02-19T03:32:12.640Z,13.47
2023-02-19T03:34:47.847Z,16.90
2023-02-19T03:37:21.781Z,12.93
2023-02-19T03:39:50.424Z,8.33
2023-02-19T03:42:28.961Z,11.17
2023-02-19T03:45:11.574Z,11.77
2023-02-19T03:47:49.858Z,8.07
2023-02-19T03:50:25.481Z,14.87
2023-02-19T03:53:05.441Z,13.40
2023-02-19T03:55:45.207Z,11.17
2023-02-19T03:58:19.584Z,11.57
2023-02-19T04:00:53.765Z,10.53
2023-02-19T04:03:29.157Z,17.70
2023-02-19T04:06:03.651Z,16.10
2023-02-19T04:08:36.404Z,13.13
2023-02-19T04:11:08.806Z,10.77
2023-02-19T04:13:43.749Z,11.03
2023-02-19T04:16:18.934Z,9.07
2023-02-19T04:18:51.044Z,8.30
2023-02-19T04:21:23.489Z,15.33
2023-02-19T04:23:52.534Z,14.27
2023-02-19T04:26:23.689Z,20.60
2023-02-19T04:28:52.133Z,8.40
2023-02-19T04:31:20.780Z,15.90
2023-02-19T04:33:49.416Z,9.47
2023-02-19T04:36:17.918Z,11.33
2023-02-19T04:38:47.809Z,15.37
2023-02-19T04:41:16.349Z,12.70
2023-02-19T04:43:44.777Z,9.67
2023-02-19T04:46:13.296Z,14.90
2023-02-19T04:48:43.002Z,16.10
2023-02-19T04:51:12.360Z,12.43
2023-02-19T04:53:41.031Z,13.03
2023-02-19T04:56:12.551Z,8.20
2023-02-19T04:58:42.393Z,13.00
2023-02-19T05:01:11.774Z,10.83
2023-02-19T05:03:40.466Z,21.93
2023-02-19T05:06:12.311Z,4.13
2023-02-19T05:08:41.233Z,7.80
2023-02-19T05:11:13.267Z,12.43
2023-02-19T05:13:42.128Z,10.30
2023-02-19T05:16:13.809Z,9.37
2023-02-19T05:18:42.882Z,16.07
2023-02-19T05:21:12.414Z,11.20
2023-02-19T05:23:41.623Z,9.33
2023-02-19T05:26:17.000Z,10.97
2023-02-19T05:28:45.605Z,19.17
2023-02-19T05:31:14.844Z,18.43
2023-02-19T05:33:44.266Z,19.43
2023-02-19T05:36:14.499Z,9.23
2023-02-19T05:38:43.583Z,12.90
2023-02-19T05:41:15.509Z,12.40
2023-02-19T05:43:45.688Z,13.70
2023-02-19T05:46:16.724Z,8.43
2023-02-19T05:48:45.219Z,16.57
2023-02-19T05:51:15.905Z,15.10
2023-02-19T05:53:45.345Z,14.60
2023-02-19T05:56:29.018Z,13.30
2023-02-19T05:58:58.065Z,13.77
2023-02-19T06:01:29.214Z,6.23
2023-02-19T06:03:58.493Z,12.70
2023-02-19T06:06:28.213Z,11.93
2023-02-19T06:08:56.651Z,15.97
2023-02-19T06:11:26.612Z,12.17
2023-02-19T06:13:55.139Z,15.77
2023-02-19T06:16:23.874Z,10.70
2023-02-19T06:18:52.501Z,14.13
2023-02-19T06:21:21.154Z,10.30
2023-02-19T06:23:49.653Z,8.40
2023-02-19T06:26:20.650Z,15.67
2023-02-19T06:28:52.417Z,10.17
2023-02-19T06:31:22.381Z,11.50
2023-02-19T06:33:51.566Z,13.30
2023-02-19T06:36:22.071Z,14.37
2023-02-19T06:38:50.760Z,7.70
2023-02-19T06:41:19.405Z,13.63
2023-02-19T06:43:47.925Z,9.97
2023-02-19T06:46:17.786Z,9.70
2023-02-19T06:48:46.768Z,6.87
2023-02-19T06:51:18.573Z,6.83
2023-02-19T06:53:47.445Z,10.10
2023-02-19T06:56:27.555Z,11.80
2023-02-19T06:58:57.390Z,10.57
2023-02-19T07:01:27.837Z,6.23
2023-02-19T07:03:56.343Z,13.37
2023-02-19T07:06:25.739Z,14.63
2023-02-19T07:08:56.417Z,12.80
2023-02-19T07:11:25.736Z,13.13
2023-02-19T07:13:56.657Z,18.20
2023-02-19T07:16:27.307Z,21.70
2023-02-19T07:18:58.005Z,17.43
2023-02-19T07:21:27.014Z,19.87
2023-02-19T07:23:55.628Z,12.70
2023-02-19T07:26:24.322Z,14.63
2023-02-19T07:28:53.385Z,11.13
2023-02-19T07:31:24.597Z,19.40
2023-02-19T07:33:55.107Z,14.40
2023-02-19T07:36:24.918Z,16.97
2023-02-19T07:38:57.517Z,19.10
2023-02-19T07:41:26.468Z,13.70
2023-02-19T07:43:58.590Z,22.97
2023-02-19T07:46:27.492Z,14.40
2023-02-19T07:48:57.324Z,24.13
2023-02-19T07:51:25.854Z,18.80
2023-02-19T07:53:54.306Z,13.10
2023-02-19T07:56:22.767Z,21.07
2023-02-19T07:58:51.399Z,15.23
2023-02-19T08:01:43.159Z,14.50
2023-02-19T08:04:13.684Z,11.77
2023-02-19T08:06:42.734Z,13.07
2023-02-19T08:09:11.330Z,10.40
2023-02-19T08:11:57.113Z,16.10
2023-02-19T08:14:26.395Z,12.60
2023-02-19T08:16:55.406Z,18.17
2023-02-19T08:19:25.386Z,19.17
2023-02-19T08:21:54.504Z,12.63
2023-02-19T08:24:23.058Z,11.03
2023-02-19T08:26:51.779Z,14.80
2023-02-19T08:29:20.233Z,21.10
2023-02-19T08:31:49.011Z,17.43
2023-02-19T08:34:17.521Z,12.67
2023-02-19T08:36:47.882Z,14.30
2023-02-19T08:39:16.406Z,16.10
2023-02-19T08:41:44.855Z,14.30
2023-02-19T08:44:13.449Z,17.70
2023-02-19T08:46:41.923Z,14.97
2023-02-19T08:49:10.374Z,12.43
2023-02-19T08:51:38.835Z,17.50
2023-02-19T08:54:08.712Z,10.27
2023-02-19T08:56:37.234Z,12.60
2023-02-19T08:59:05.891Z,17.50
2023-02-19T09:01:34.507Z,12.20
2023-02-19T09:04:03.088Z,14.70
2023-02-19T09:06:31.603Z,14.40
2023-02-19T09:09:00.095Z,19.20
2023-02-19T09:11:29.957Z,14.73
2023-02-19T09:13:58.815Z,11.73
2023-02-19T09:16:27.329Z,10.80
2023-02-19T09:18:55.777Z,12.87
2023-02-19T09:21:24.228Z,13.43
2023-02-19T09:23:52.938Z,13.27
2023-02-19T09:26:21.477Z,11.50
2023-02-19T09:28:51.309Z,11.43
2023-02-19T09:31:19.930Z,16.33
2023-02-19T09:33:49.564Z,14.77
2023-02-19T09:36:19.669Z,14.93
2023-02-19T09:38:48.132Z,12.60
2023-02-19T09:41:23.489Z,8.13
2023-02-19T09:43:53.458Z,13.57
2023-02-19T09:46:31.118Z,14.37
2023-02-19T09:49:06.253Z,11.00
2023-02-19T09:51:37.650Z,8.83
2023-02-19T09:54:11.694Z,14.70
2023-02-19T09:56:40.350Z,7.83
2023-02-19T09:59:20.430Z,8.97
2023-02-19T10:01:53.121Z,14.17
2023-02-19T10:04:21.681Z,9.10
2023-02-19T10:06:51.135Z,9.40
2023-02-19T10:09:23.589Z,5.23
2023-02-19T10:11:54.809Z,11.73
2023-02-19T10:14:30.766Z,11.50
2023-02-19T10:17:04.993Z,9.37
2023-02-19T10:19:34.433Z,6.20
2023-02-19T10:22:04.858Z,5.67
2023-02-19T10:24:33.494Z,11.30
2023-02-19T10:27:02.026Z,16.33
2023-02-19T10:29:31.837Z,10.40
2023-02-19T10:32:17.098Z,9.23
2023-02-19T10:34:45.665Z,9.97
2023-02-19T10:37:17.268Z,13.50
2023-02-19T10:39:47.668Z,14.13
2023-02-19T10:42:21.413Z,6.77
2023-02-19T10:44:55.557Z,4.40
2023-02-19T10:47:26.642Z,3.97
2023-02-19T10:50:02.134Z,8.30
2023-02-19T10:52:35.230Z,2.27
2023-02-19T10:55:17.338Z,3.07
2023-02-19T10:57:46.834Z,2.93
2023-02-19T11:00:26.703Z,2.10
2023-02-19T11:03:15.632Z,2.47
2023-02-19T11:05:56.802Z,2.10
2023-02-19T11:08:25.598Z,1.13
2023-02-19T11:10:54.213Z,1.13
2023-02-19T11:13:30.891Z,1.50
2023-02-19T11:16:01.415Z,2.17
2023-02-19T11:18:32.395Z,4.47
2023-02-19T11:21:02.729Z,2.53
2023-02-19T11:23:33.582Z,2.80
2023-02-19T11:26:06.352Z,5.57
2023-02-19T11:28:37.076Z,2.70
2023-02-19T11:31:24.791Z,2.17
2023-02-19T11:33:58.735Z,3.53
2023-02-19T11:36:32.513Z,3.00
2023-02-19T11:39:21.410Z,2.43
2023-02-19T11:42:12.519Z,2.07
2023-02-19T11:44:54.139Z,2.70
2023-02-19T11:47:53.634Z,3.10
2023-02-19T11:50:28.234Z,2.23
2023-02-19T11:53:11.588Z,1.60
2023-02-19T11:55:52.839Z,5.17
2023-02-19T11:59:00.823Z,1.80
2023-02-19T12:01:54.759Z,2.73
2023-02-19T12:04:53.631Z,1.63
2023-02-19T12:07:39.870Z,1.60
2023-02-19T12:10:18.279Z,4.03
2023-02-19T12:13:00.601Z,1.77
2023-02-19T12:15:52.316Z,2.40
2023-02-19T12:18:43.790Z,1.37
2023-02-19T12:21:29.169Z,5.77
2023-02-19T12:24:21.644Z,3.00
2023-02-19T12:27:03.069Z,1.40
2023-02-19T12:29:45.637Z,2.30
2023-02-19T12:32:31.344Z,1.80
2023-02-19T12:35:43.703Z,2.10
2023-02-19T12:38:32.481Z,1.47
2023-02-19T12:41:17.256Z,1.60
2023-02-19T12:43:53.880Z,3.30
2023-02-19T12:46:28.089Z,2.60
2023-02-19T12:49:02.666Z,3.13
2023-02-19T12:51:37.934Z,1.77
2023-02-19T12:54:14.878Z,0.90
2023-02-19T12:56:48.609Z,1.77
2023-02-19T12:59:23.755Z,1.67
2023-02-19T13:01:57.599Z,1.63
2023-02-19T13:04:34.294Z,2.00
2023-02-19T13:07:07.690Z,5.90
2023-02-19T13:09:42.374Z,2.43
2023-02-19T13:12:15.847Z,1.53
2023-02-19T13:14:46.995Z,3.27
2023-02-19T13:17:25.112Z,1.33
2023-02-19T13:19:58.549Z,1.60
2023-02-19T13:22:53.487Z,1.97
2023-02-19T13:25:24.508Z,2.00
2023-02-19T13:28:11.067Z,2.47
2023-02-19T13:30:58.561Z,2.20
2023-02-19T13:33:40.326Z,1.97
2023-02-19T13:36:19.068Z,1.90
2023-02-19T13:38:50.273Z,1.53
2023-02-19T13:41:26.623Z,2.83
2023-02-19T13:44:01.797Z,4.17
2023-02-19T13:46:39.675Z,4.93
2023-02-19T13:49:40.080Z,2.07
2023-02-19T13:52:38.286Z,3.43
2023-02-19T13:55:48.492Z,6.00
2023-02-19T13:58:37.646Z,3.60
2023-02-19T14:01:07.601Z,2.37
2023-02-19T14:03:50.774Z,2.47
2023-02-19T14:06:19.484Z,2.60
2023-02-19T14:08:56.005Z,2.80
2023-02-19T14:12:10.390Z,2.70
2023-02-19T14:14:41.640Z,7.53
2023-02-19T14:17:28.388Z,6.37
2023-02-19T14:20:01.561Z,1.87
2023-02-19T14:23:10.418Z,1.83
2023-02-19T14:25:53.238Z,7.03
2023-02-19T14:28:33.461Z,3.07
2023-02-19T14:31:20.595Z,2.87
2023-02-19T14:33:51.538Z,1.83
2023-02-19T14:36:30.769Z,7.07
2023-02-19T14:39:01.853Z,5.23
2023-02-19T14:41:33.903Z,2.07
2023-02-19T14:44:03.929Z,1.80
2023-02-19T14:46:38.388Z,4.87
2023-02-19T14:49:15.767Z,2.30
2023-02-19T14:51:47.386Z,4.43
2023-02-19T14:54:19.501Z,3.50
2023-02-19T14:56:52.754Z,3.93
2023-02-19T14:59:27.490Z,5.00
2023-02-19T15:01:59.984Z,1.80
2023-02-19T15:04:31.281Z,1.43
2023-02-19T15:07:03.595Z,1.40
2023-02-19T15:09:37.643Z,1.43
2023-02-19T15:12:06.985Z,4.47
2023-02-19T15:14:35.815Z,3.40
2023-02-19T15:17:07.358Z,1.97
2023-02-19T15:19:39.622Z,2.80
2023-02-19T15:22:12.599Z,1.57
2023-02-19T15:24:47.611Z,1.60
2023-02-19T15:27:20.693Z,4.60
2023-02-19T15:29:53.237Z,1.57
2023-02-19T15:32:26.309Z,2.30
2023-02-19T15:34:56.546Z,4.83
2023-02-19T15:37:26.423Z,2.33
2023-02-19T15:39:56.481Z,2.80
2023-02-19T15:42:29.017Z,2.20
2023-02-19T15:45:02.128Z,9.43
2023-02-19T15:47:36.745Z,4.70
2023-02-19T15:50:11.434Z,9.97
2023-02-19T15:52:48.356Z,4.57
2023-02-19T15:55:27.036Z,4.43
2023-02-19T15:58:02.225Z,3.53
2023-02-19T16:00:36.636Z,2.63
2023-02-19T16:03:07.426Z,3.60
2023-02-19T16:05:39.842Z,1.60
2023-02-19T16:08:18.045Z,4.00
2023-02-19T16:10:57.431Z,1.90
2023-02-19T16:13:27.554Z,1.97
2023-02-19T16:16:03.941Z,2.17
2023-02-19T16:18:34.529Z,2.73
2023-02-19T16:21:08.860Z,5.13
2023-02-19T16:23:42.522Z,2.17
2023-02-19T16:26:11.256Z,2.67
2023-02-19T16:28:41.897Z,3.50
2023-02-19T16:31:12.628Z,5.70
2023-02-19T16:33:43.937Z,2.80
2023-02-19T16:36:35.052Z,5.27
2023-02-19T16:39:17.506Z,3.83
2023-02-19T16:42:18.306Z,3.10
2023-02-19T16:44:49.572Z,5.20
2023-02-19T16:47:32.552Z,7.40
2023-02-19T16:50:04.976Z,3.53
2023-02-19T16:52:33.528Z,4.20
2023-02-19T16:55:02.094Z,7.40
2023-02-19T16:57:30.686Z,7.37
2023-02-19T16:59:59.184Z,6.60
2023-02-19T17:02:27.824Z,7.63
2023-02-19T17:04:56.573Z,8.53
2023-02-19T17:07:27.475Z,4.13
2023-02-19T17:09:56.018Z,4.97
2023-02-19T17:12:24.501Z,4.03
2023-02-19T17:14:52.930Z,6.73
2023-02-19T17:17:21.422Z,4.93
2023-02-19T17:19:49.909Z,4.57
2023-02-19T17:22:18.383Z,3.47
2023-02-19T17:24:48.365Z,3.83
2023-02-19T17:27:16.990Z,6.47
2023-02-19T17:29:45.459Z,2.30
2023-02-19T17:32:14.450Z,3.17
2023-02-19T17:34:43.133Z,4.07
2023-02-19T17:37:11.701Z,2.43
2023-02-19T17:39:40.190Z,2.60
2023-02-19T17:42:10.114Z,2.27
2023-02-19T17:44:38.607Z,3.30
2023-02-19T17:47:07.437Z,3.33
2023-02-19T17:49:36.334Z,4.23
2023-02-19T17:52:05.654Z,1.90
2023-02-19T17:54:34.305Z,2.63
2023-02-19T17:57:02.897Z,2.30
2023-02-19T17:59:32.733Z,3.40
2023-02-19T18:02:03.125Z,2.00
2023-02-19T18:04:31.624Z,3.33
2023-02-19T18:07:00.151Z,1.93
2023-02-19T18:09:28.633Z,2.60
2023-02-19T18:12:00.466Z,1.58
2023-02-19T18:14:31.138Z,1.70
2023-02-19T18:17:02.126Z,1.80
2023-02-19T18:19:30.684Z,5.20
2023-02-19T18:21:59.395Z,1.87
2023-02-19T18:24:27.889Z,3.17
2023-02-19T18:26:56.516Z,9.60
2023-02-19T18:29:26.988Z,25.87
2023-02-19T18:31:55.625Z,4.83
2023-02-19T18:34:25.534Z,5.87
2023-02-19T18:36:53.991Z,7.50
2023-02-19T18:39:22.505Z,4.57
2023-02-19T18:41:51.866Z,8.93
2023-02-19T18:44:21.066Z,5.33
2023-02-19T18:46:49.948Z,6.07
2023-02-19T18:49:19.049Z,8.57
2023-02-19T18:51:48.969Z,8.33
2023-02-19T18:54:17.445Z,10.33
2023-02-19T18:56:47.431Z,5.50
2023-02-19T18:59:15.921Z,3.73
2023-02-19T19:01:44.484Z,7.67
2023-02-19T19:04:13.493Z,10.47
2023-02-19T19:06:42.022Z,8.03
2023-02-19T19:09:11.885Z,5.07
2023-02-19T19:11:41.275Z,4.93
2023-02-19T19:14:09.816Z,8.53
2023-02-19T19:16:38.303Z,2.40
2023-02-19T19:19:06.788Z,5.00
2023-02-19T19:21:35.311Z,4.53
2023-02-19T19:24:04.045Z,2.23
2023-02-19T19:26:34.596Z,4.33
2023-02-19T19:29:03.220Z,2.87
2023-02-19T19:31:36.557Z,4.17
2023-02-19T19:34:05.380Z,4.50
2023-02-19T19:36:33.916Z,3.50
2023-02-19T19:39:02.591Z,5.33
2023-02-19T19:41:31.193Z,6.83
2023-02-19T19:44:03.504Z,5.13
2023-02-19T19:46:32.163Z,10.03
2023-02-19T19:49:01.284Z,5.60
2023-02-19T19:51:32.785Z,4.93
2023-02-19T19:54:03.145Z,5.27
2023-02-19T19:56:32.194Z,5.03
2023-02-19T19:59:02.118Z,6.30
2023-02-19T20:01:30.659Z,7.03
2023-02-19T20:03:59.297Z,6.60
2023-02-19T20:06:29.507Z,9.80
2023-02-19T20:08:59.611Z,5.63
2023-02-19T20:11:28.334Z,4.77
2023-02-19T20:13:57.172Z,5.77
2023-02-19T20:16:28.851Z,4.03
2023-02-19T20:18:57.477Z,4.07
2023-02-19T20:21:26.353Z,5.73
2023-02-19T20:23:54.920Z,4.23
2023-02-19T20:26:25.545Z,5.37
2023-02-19T20:28:54.129Z,2.70
2023-02-19T20:31:23.137Z,3.53
2023-02-19T20:33:53.366Z,5.03
2023-02-19T20:36:23.115Z,4.93
2023-02-19T20:38:52.006Z,2.83
2023-02-19T20:41:20.637Z,4.03
2023-02-19T20:43:49.182Z,5.87
2023-02-19T20:46:17.766Z,6.27
2023-02-19T20:48:46.778Z,7.30
2023-02-19T20:51:16.681Z,7.07
2023-02-19T20:53:45.294Z,9.77
2023-02-19T20:56:14.135Z,12.43
2023-02-19T20:58:43.679Z,7.60
2023-02-19T21:01:12.698Z,6.53
2023-02-19T21:03:41.471Z,8.60
2023-02-19T21:06:10.147Z,6.37
2023-02-19T21:08:40.177Z,5.27
2023-02-19T21:11:08.831Z,7.97
2023-02-19T21:13:38.478Z,9.60
2023-02-19T21:16:07.682Z,9.67
2023-02-19T21:18:36.259Z,10.27
2023-02-19T21:21:04.893Z,8.33
2023-02-19T21:23:33.614Z,7.53
2023-02-19T21:26:05.002Z,8.97
2023-02-19T21:28:33.606Z,9.07
2023-02-19T21:31:02.463Z,6.03
2023-02-19T21:33:31.439Z,11.67
2023-02-19T21:36:00.011Z,14.70
2023-02-19T21:38:28.496Z,8.27
2023-02-19T21:40:57.166Z,11.77
2023-02-19T21:43:29.078Z,10.07
2023-02-19T21:45:57.997Z,8.03
2023-02-19T21:48:26.568Z,9.03
2023-02-19T21:50:55.388Z,7.30
2023-02-19T21:53:23.990Z,9.37
2023-02-19T21:55:58.271Z,5.83
2023-02-19T21:58:28.559Z,7.53
2023-02-19T22:00:58.204Z,9.43
2023-02-19T22:03:27.420Z,7.60
2023-02-19T22:05:56.174Z,6.33
2023-02-19T22:08:24.799Z,9.03
2023-02-19T22:10:53.326Z,9.03
2023-02-19T22:13:21.995Z,8.80
2023-02-19T22:15:52.001Z,9.70
2023-02-19T22:18:20.633Z,12.63
2023-02-19T22:20:49.182Z,12.73
2023-02-19T22:23:17.797Z,5.77
2023-02-19T22:25:46.360Z,14.68
2023-02-19T22:28:15.218Z,9.03
2023-02-19T22:30:44.104Z,13.03
2023-02-19T22:33:14.185Z,11.37
2023-02-19T22:35:43.150Z,8.67
2023-02-19T22:38:11.711Z,12.03
2023-02-19T22:40:40.277Z,11.63
2023-02-19T22:43:08.860Z,8.87
2023-02-19T22:45:37.425Z,9.53
2023-02-19T22:48:06.308Z,11.17
2023-02-19T22:50:36.263Z,12.63
2023-02-19T22:53:04.838Z,9.80
2023-02-19T22:55:33.454Z,11.87
2023-02-19T22:58:02.040Z,8.70
2023-02-19T23:00:30.626Z,13.37
2023-02-19T23:02:59.570Z,14.33
2023-02-19T23:05:28.108Z,13.60
2023-02-19T23:07:58.119Z,12.93
2023-02-19T23:10:27.074Z,14.57
2023-02-19T23:12:55.725Z,12.87
2023-02-19T23:15:24.310Z,13.63
2023-02-19T23:17:52.820Z,12.13
2023-02-19T23:20:21.292Z,17.37
2023-02-19T23:22:49.787Z,14.77
2023-02-19T23:25:19.807Z,12.20
2023-02-19T23:27:48.309Z,14.53
2023-02-19T23:30:17.727Z,15.40
2023-02-19T23:32:46.247Z,16.60
2023-02-19T23:35:14.825Z,15.73
2023-02-19T23:37:43.435Z,11.33
2023-02-19T23:40:13.873Z,10.83
2023-02-19T23:42:43.738Z,32.97
2023-02-19T23:45:12.236Z,12.60
2023-02-19T23:47:40.730Z,11.93
2023-02-19T23:50:09.925Z,14.40
2023-02-19T23:52:38.410Z,13.07
2023-02-19T23:55:07.856Z,10.90
2023-02-19T23:57:36.307Z,13.13
